Time;durP1;ratioP1;P1;durP2;ratioP2;P2;SDS_P1;SDS_P2;PMS_P1;PMS_P2;Temp;Humidity;BMP_temperature;BMP_pressure;BME280_temperature;BME280_humidity;BME280_pressure;Samples;Min_cycle;Max_cycle;Signal;HPM_P1;HPM_P2
2022/10/07 00:00:18;;;;;;;14.02;6.95;;;;;;;;;;10148394;28;20057;-70
2022/10/07 00:05:14;;;;;;;8.60;6.38;;;;;;;;;;10153492;28;20054;-70
2022/10/07 00:10:10;;;;;;;9.38;7.30;;;;;;;;;;10155105;28;20520;-70
2022/10/07 00:15:07;;;;;;;10.88;7.18;;;;;;;;;;10152975;28;20054;-70
2022/10/07 00:20:04;;;;;;;13.80;7.50;;;;;;;;;;10155150;28;20042;-72
2022/10/07 00:25:01;;;;;;;9.02;8.10;;;;;;;;;;10154839;28;20648;-70
2022/10/07 00:29:57;;;;;;;13.73;8.32;;;;;;;;;;10148562;28;20541;-69
2022/10/07 00:34:53;;;;;;;13.27;9.93;;;;;;;;;;10149711;28;20046;-69
2022/10/07 00:39:49;;;;;;;13.00;9.30;;;;;;;;;;10149303;28;20391;-69
2022/10/07 00:44:47;;;;;;;10.07;9.07;;;;;;;;;;10147934;28;20042;-68
2022/10/07 00:50:00;;;;;;;12.48;9.05;;;;;;;;;;10147387;28;20047;-68
2022/10/07 00:54:58;;;;;;;12.60;9.75;;;;;;;;;;10157876;28;20047;-70
2022/10/07 00:59:55;;;;;;;13.95;10.80;;;;;;;;;;10154739;28;20049;-69
2022/10/07 01:04:52;;;;;;;14.18;11.38;;;;;;;;;;10147512;28;20038;-70
2022/10/07 01:09:50;;;;;;;12.98;11.52;;;;;;;;;;10155667;28;20058;-70
2022/10/07 01:14:59;;;;;;;13.35;12.15;;;;;;;;;;10149353;28;20731;-69
2022/10/07 01:19:55;;;;;;;14.45;12.77;;;;;;;;;;10142062;28;20043;-70
2022/10/07 01:25:01;;;;;;;14.88;13.38;;;;;;;;;;10153435;28;20038;-70
2022/10/07 01:30:02;;;;;;;15.35;13.98;;;;;;;;;;10152484;28;20042;-70
2022/10/07 01:35:00;;;;;;;15.23;13.82;;;;;;;;;;10137169;28;20054;-70
2022/10/07 01:40:00;;;;;;;18.48;16.25;;;;;;;;;;10148696;28;20484;-70
2022/10/07 01:44:57;;;;;;;19.20;14.80;;;;;;;;;;10147847;28;20046;-70
2022/10/07 01:49:53;;;;;;;15.80;14.70;;;;;;;;;;10160590;28;20041;-70
2022/10/07 01:55:15;;;;;;;16.77;15.00;;;;;;;;;;10148710;28;20643;-70
2022/10/07 02:00:12;;;;;;;19.73;16.40;;;;;;;;;;10135227;28;20050;-71
2022/10/07 02:05:20;;;;;;;17.23;14.50;;;;;;;;;;10110805;28;20046;-71
2022/10/07 02:10:22;;;;;;;17.83;16.27;;;;;;;;;;10135608;28;20054;-71
2022/10/07 02:15:19;;;;;;;16.65;15.27;;;;;;;;;;10142971;28;20054;-71
2022/10/07 02:20:16;;;;;;;19.23;17.08;;;;;;;;;;10141901;28;20488;-71
2022/10/07 02:25:13;;;;;;;18.15;16.05;;;;;;;;;;10145977;28;20050;-70
2022/10/07 02:30:12;;;;;;;18.27;16.73;;;;;;;;;;10151134;28;20102;-71
2022/10/07 02:35:16;;;;;;;19.88;18.20;;;;;;;;;;10133182;28;20062;-69
2022/10/07 02:40:12;;;;;;;20.40;18.70;;;;;;;;;;10149689;28;20046;-69
2022/10/07 02:45:18;;;;;;;19.60;17.73;;;;;;;;;;10146979;28;20049;-70
2022/10/07 02:50:24;;;;;;;19.20;17.60;;;;;;;;;;10148834;28;20050;-70
2022/10/07 02:55:23;;;;;;;20.52;18.70;;;;;;;;;;10146775;28;20069;-70
2022/10/07 03:00:19;;;;;;;20.85;19.35;;;;;;;;;;10143202;28;20084;-70
2022/10/07 03:05:18;;;;;;;21.20;19.27;;;;;;;;;;10145164;28;20042;-70
2022/10/07 03:10:15;;;;;;;20.88;19.27;;;;;;;;;;10144162;28;20528;-70
2022/10/07 03:15:11;;;;;;;20.17;18.58;;;;;;;;;;10138511;28;20467;-70
2022/10/07 03:20:08;;;;;;;19.90;18.13;;;;;;;;;;10143243;28;20042;-70
2022/10/07 03:25:04;;;;;;;20.02;18.67;;;;;;;;;;10149231;28;20130;-70
2022/10/07 03:30:00;;;;;;;22.90;20.90;;;;;;;;;;10147643;28;20055;-69
2022/10/07 03:34:57;;;;;;;23.95;21.85;;;;;;;;;;10138810;28;20527;-69
2022/10/07 03:39:53;;;;;;;22.98;21.05;;;;;;;;;;10145438;28;20046;-69
2022/10/07 03:44:49;;;;;;;23.52;21.50;;;;;;;;;;10142362;28;20500;-69
2022/10/07 03:49:45;;;;;;;23.23;21.27;;;;;;;;;;10150036;28;20038;-69
2022/10/07 03:54:42;;;;;;;25.60;23.60;;;;;;;;;;10139732;28;20054;-69
2022/10/07 03:59:39;;;;;;;25.35;22.17;;;;;;;;;;10132101;28;20046;-71
2022/10/07 04:04:35;;;;;;;23.55;21.52;;;;;;;;;;10146009;28;20038;-71
2022/10/07 04:09:32;;;;;;;22.75;20.95;;;;;;;;;;10153531;28;20439;-71
2022/10/07 04:14:28;;;;;;;23.48;21.33;;;;;;;;;;10159666;28;20053;-68
2022/10/07 04:19:25;;;;;;;22.67;20.80;;;;;;;;;;10160461;28;20053;-69
2022/10/07 04:24:21;;;;;;;22.15;20.25;;;;;;;;;;10166331;28;20055;-71
2022/10/07 04:29:17;;;;;;;22.42;20.35;;;;;;;;;;10155254;28;20094;-71
2022/10/07 04:34:14;;;;;;;23.10;21.08;;;;;;;;;;10149442;28;20142;-71
2022/10/07 04:39:10;;;;;;;22.55;20.85;;;;;;;;;;10145491;28;20058;-71
2022/10/07 04:44:07;;;;;;;23.73;21.70;;;;;;;;;;10137976;28;20073;-71
2022/10/07 04:49:03;;;;;;;24.70;22.25;;;;;;;;;;10154306;28;20528;-70
2022/10/07 04:54:00;;;;;;;22.67;20.83;;;;;;;;;;10152594;28;20180;-70
2022/10/07 04:58:56;;;;;;;22.10;20.60;;;;;;;;;;10149072;28;20081;-70
2022/10/07 05:03:53;;;;;;;22.08;19.90;;;;;;;;;;10148288;28;20045;-70
2022/10/07 05:08:51;;;;;;;23.00;21.15;;;;;;;;;;10135182;28;20049;-70
2022/10/07 05:13:47;;;;;;;24.38;22.00;;;;;;;;;;10155024;28;20046;-71
2022/10/07 05:18:43;;;;;;;21.67;19.92;;;;;;;;;;10151227;28;20042;-70
2022/10/07 05:23:40;;;;;;;22.10;20.05;;;;;;;;;;10142347;28;20416;-71
2022/10/07 05:28:36;;;;;;;22.40;20.27;;;;;;;;;;10147809;28;20053;-70
2022/10/07 05:33:33;;;;;;;22.63;20.40;;;;;;;;;;10142115;28;21620;-70
2022/10/07 05:38:29;;;;;;;22.30;20.23;;;;;;;;;;10146204;28;20050;-70
2022/10/07 05:43:26;;;;;;;20.58;18.98;;;;;;;;;;10147569;28;20484;-70
2022/10/07 05:48:22;;;;;;;20.83;19.23;;;;;;;;;;10150725;28;20412;-71
2022/10/07 05:53:19;;;;;;;21.83;19.92;;;;;;;;;;10131687;28;20180;-70
2022/10/07 05:58:15;;;;;;;20.48;18.55;;;;;;;;;;10136055;28;20045;-70
2022/10/07 06:03:12;;;;;;;20.40;18.33;;;;;;;;;;10157744;28;20435;-68
2022/10/07 06:08:09;;;;;;;21.17;19.20;;;;;;;;;;10152478;28;20578;-69
2022/10/07 06:13:06;;;;;;;19.40;17.65;;;;;;;;;;10148567;28;20054;-69
2022/10/07 06:18:03;;;;;;;20.08;18.30;;;;;;;;;;10143381;28;20050;-70
2022/10/07 06:22:59;;;;;;;20.13;17.77;;;;;;;;;;10150305;28;20061;-71
2022/10/07 06:27:56;;;;;;;20.58;18.75;;;;;;;;;;10152478;28;20042;-70
2022/10/07 06:32:53;;;;;;;19.38;17.58;;;;;;;;;;10140343;28;20568;-70
2022/10/07 06:37:50;;;;;;;20.35;18.23;;;;;;;;;;10140781;28;20061;-70
2022/10/07 06:42:46;;;;;;;21.50;18.05;;;;;;;;;;10140304;28;20053;-70
2022/10/07 06:47:42;;;;;;;19.23;17.27;;;;;;;;;;10151677;28;20054;-69
2022/10/07 06:52:39;;;;;;;18.52;17.02;;;;;;;;;;10147784;28;20057;-71
2022/10/07 06:57:38;;;;;;;18.10;16.50;;;;;;;;;;10145702;28;20053;-70
2022/10/07 07:02:51;;;;;;;20.02;18.00;;;;;;;;;;10138936;28;20144;-72
2022/10/07 07:07:47;;;;;;;18.95;17.45;;;;;;;;;;10143924;28;20050;-72
2022/10/07 07:12:44;;;;;;;17.08;15.65;;;;;;;;;;10142827;28;20089;-71
2022/10/07 07:17:41;;;;;;;17.10;15.68;;;;;;;;;;10139096;28;20064;-71
2022/10/07 07:22:38;;;;;;;17.02;15.57;;;;;;;;;;10143917;28;20042;-71
2022/10/07 07:27:35;;;;;;;16.70;14.95;;;;;;;;;;10143825;28;20113;-71
2022/10/07 07:32:31;;;;;;;16.65;15.13;;;;;;;;;;10143321;28;20596;-71
2022/10/07 07:37:29;;;;;;;16.27;14.77;;;;;;;;;;10140145;28;20055;-72
2022/10/07 07:42:26;;;;;;;16.45;14.73;;;;;;;;;;10149106;28;20512;-71
2022/10/07 07:47:23;;;;;;;18.90;13.88;;;;;;;;;;10145480;28;20053;-71
2022/10/07 07:52:19;;;;;;;16.63;15.10;;;;;;;;;;10149306;28;20050;-70
2022/10/07 07:57:15;;;;;;;16.13;14.52;;;;;;;;;;10139346;28;20445;-70
2022/10/07 08:02:12;;;;;;;14.52;13.32;;;;;;;;;;10154702;28;20054;-70
2022/10/07 08:07:10;;;;;;;17.50;14.25;;;;;;;;;;10147968;28;20061;-71
2022/10/07 08:12:06;;;;;;;15.73;14.15;;;;;;;;;;10146554;28;20054;-70
2022/10/07 08:17:03;;;;;;;15.18;13.77;;;;;;;;;;10156664;28;20053;-69
2022/10/07 08:22:00;;;;;;;16.00;14.32;;;;;;;;;;10150365;28;20046;-70
2022/10/07 08:26:56;;;;;;;13.90;12.60;;;;;;;;;;10160868;28;20038;-71
2022/10/07 08:31:53;;;;;;;15.55;12.30;;;;;;;;;;10159239;28;20049;-69
2022/10/07 08:36:50;;;;;;;14.82;11.23;;;;;;;;;;10145694;28;20042;-69
2022/10/07 08:42:01;;;;;;;17.40;11.75;;;;;;;;;;10156975;28;20054;-69
2022/10/07 08:47:16;;;;;;;11.43;10.00;;;;;;;;;;10157164;28;20047;-69
2022/10/07 08:52:28;;;;;;;11.45;10.45;;;;;;;;;;10149951;28;20054;-69
2022/10/07 08:57:34;;;;;;;16.52;10.48;;;;;;;;;;10154026;28;20553;-69
2022/10/07 09:02:45;;;;;;;13.48;10.45;;;;;;;;;;10150463;28;20053;-69
2022/10/07 09:07:47;;;;;;;13.43;10.77;;;;;;;;;;10152174;28;20498;-69
2022/10/07 09:12:44;;;;;;;14.63;9.68;;;;;;;;;;10148695;28;20045;-69
2022/10/07 09:17:46;;;;;;;14.43;10.30;;;;;;;;;;10151046;28;20058;-69
2022/10/07 09:22:47;;;;;;;14.00;9.40;;;;;;;;;;10150786;28;20538;-69
2022/10/07 09:27:43;;;;;;;12.60;9.25;;;;;;;;;;10141510;28;20045;-70
2022/10/07 09:32:42;;;;;;;12.05;9.55;;;;;;;;;;10141511;28;20054;-70
2022/10/07 09:37:52;;;;;;;14.25;9.68;;;;;;;;;;10152416;28;20038;-69
2022/10/07 09:42:49;;;;;;;19.08;8.80;;;;;;;;;;10151200;28;20060;-69
2022/10/07 09:47:51;;;;;;;11.05;8.98;;;;;;;;;;10144493;28;20051;-69
2022/10/07 09:52:53;;;;;;;25.07;10.20;;;;;;;;;;10141946;28;20602;-69
2022/10/07 09:58:00;;;;;;;10.93;9.10;;;;;;;;;;10141681;28;20054;-69
2022/10/07 10:03:00;;;;;;;18.70;9.18;;;;;;;;;;10144384;28;20447;-69
2022/10/07 10:08:02;;;;;;;17.25;10.00;;;;;;;;;;10148075;28;20126;-70
2022/10/07 10:13:00;;;;;;;12.98;9.25;;;;;;;;;;10149341;28;20042;-70
2022/10/07 10:17:56;;;;;;;15.52;9.27;;;;;;;;;;10146767;28;20049;-70
2022/10/07 10:22:52;;;;;;;16.05;10.18;;;;;;;;;;10147931;28;20048;-69
2022/10/07 10:27:55;;;;;;;10.55;9.45;;;;;;;;;;10148103;28;20508;-69
2022/10/07 10:32:51;;;;;;;;;;;;;;;;;;10146889;28;20509;-69
2022/10/07 10:38:06;;;;;;;18.42;9.02;;;;;;;;;;10146624;28;19933;-69
2022/10/07 10:43:02;;;;;;;12.73;8.90;;;;;;;;;;10145107;28;20535;-70
2022/10/07 10:48:19;;;;;;;13.68;9.38;;;;;;;;;;10154024;28;20050;-70
2022/10/07 10:53:15;;;;;;;10.82;8.90;;;;;;;;;;10155222;28;20134;-70
2022/10/07 10:58:22;;;;;;;13.85;8.60;;;;;;;;;;10159228;28;20069;-70
2022/10/07 11:03:18;;;;;;;17.65;9.18;;;;;;;;;;10152688;28;20073;-69
2022/10/07 11:08:20;;;;;;;17.00;10.18;;;;;;;;;;10154200;28;20433;-69
2022/10/07 11:13:22;;;;;;;14.05;9.63;;;;;;;;;;10142491;28;20047;-70
2022/10/07 11:18:33;;;;;;;10.88;8.50;;;;;;;;;;10142421;28;20519;-68
2022/10/07 11:23:49;;;;;;;15.15;7.97;;;;;;;;;;10131247;28;20088;-69
2022/10/07 11:28:45;;;;;;;15.07;7.90;;;;;;;;;;10132042;28;20054;-69
2022/10/07 11:34:08;;;;;;;15.63;8.40;;;;;;;;;;10134987;28;20049;-69
2022/10/07 11:39:04;;;;;;;9.07;8.15;;;;;;;;;;10128607;28;20075;-70
2022/10/07 11:44:04;;;;;;;13.50;9.30;;;;;;;;;;10127799;28;20055;-70
2022/10/07 11:49:09;;;;;;;11.52;9.50;;;;;;;;;;10135667;28;20046;-70
2022/10/07 11:54:08;;;;;;;13.27;9.20;;;;;;;;;;10143120;28;20042;-70
2022/10/07 11:59:05;;;;;;;14.55;8.80;;;;;;;;;;10149352;28;20520;-69
2022/10/07 12:04:28;;;;;;;13.20;8.38;;;;;;;;;;10140273;28;20220;-68
2022/10/07 12:09:43;;;;;;;8.37;7.57;;;;;;;;;;10148968;28;20086;-69
2022/10/07 12:14:41;;;;;;;13.13;8.63;;;;;;;;;;10145139;28;20617;-69
2022/10/07 12:19:37;;;;;;;12.57;9.27;;;;;;;;;;10135233;28;20046;-69
2022/10/07 12:24:35;;;;;;;15.52;8.77;;;;;;;;;;10141230;28;20062;-69
2022/10/07 12:29:44;;;;;;;11.00;8.82;;;;;;;;;;10150130;28;20663;-68
2022/10/07 12:34:42;;;;;;;11.20;8.18;;;;;;;;;;10140913;28;20042;-69
2022/10/07 12:39:38;;;;;;;14.52;8.93;;;;;;;;;;10142382;28;20034;-69
2022/10/07 12:44:38;;;;;;;14.00;8.80;;;;;;;;;;10140488;28;20047;-68
2022/10/07 12:49:36;;;;;;;11.05;8.27;;;;;;;;;;10151448;28;20039;-68
2022/10/07 12:54:37;;;;;;;13.20;8.30;;;;;;;;;;10145726;28;20048;-68
2022/10/07 12:59:47;;;;;;;12.55;7.93;;;;;;;;;;10148701;28;20047;-68
2022/10/07 13:04:43;;;;;;;9.65;7.20;;;;;;;;;;10143587;28;20069;-68
2022/10/07 13:09:53;;;;;;;10.95;7.20;;;;;;;;;;10135795;28;20034;-68
2022/10/07 13:14:56;;;;;;;8.43;7.45;;;;;;;;;;10138952;28;20052;-69
2022/10/07 13:20:11;;;;;;;12.82;6.90;;;;;;;;;;10148067;28;20051;-69
2022/10/07 13:25:10;;;;;;;12.70;7.20;;;;;;;;;;10142666;28;20054;-69
2022/10/07 13:30:27;;;;;;;12.07;7.13;;;;;;;;;;10145651;28;20050;-69
2022/10/07 13:35:30;;;;;;;10.13;7.20;;;;;;;;;;10150910;28;20289;-69
2022/10/07 13:40:34;;;;;;;12.82;7.25;;;;;;;;;;10150681;28;20743;-70
2022/10/07 13:45:32;;;;;;;11.50;6.95;;;;;;;;;;10157660;28;20061;-70
2022/10/07 13:50:29;;;;;;;10.65;6.45;;;;;;;;;;10148203;28;20150;-70
2022/10/07 13:55:30;;;;;;;8.65;6.22;;;;;;;;;;10158565;28;20149;-70
2022/10/07 14:00:27;;;;;;;9.18;6.88;;;;;;;;;;10153523;28;20921;-70
2022/10/07 14:05:27;;;;;;;11.40;7.00;;;;;;;;;;10158720;28;20056;-70
2022/10/07 14:10:24;;;;;;;9.40;6.60;;;;;;;;;;10150441;28;20061;-70
2022/10/07 14:15:22;;;;;;;10.23;6.63;;;;;;;;;;10151318;28;20782;-70
2022/10/07 14:20:36;;;;;;;11.38;6.70;;;;;;;;;;10153669;28;20080;-70
2022/10/07 14:25:52;;;;;;;12.80;6.95;;;;;;;;;;10140444;28;20038;-70
2022/10/07 14:36:24;;;;;;;9.90;7.32;;;;;;;;;;10149705;28;20501;-70
2022/10/07 14:41:21;;;;;;;13.43;7.30;;;;;;;;;;10151101;28;20057;-70
2022/10/07 14:46:21;;;;;;;9.75;6.93;;;;;;;;;;10156773;28;20077;-70
2022/10/07 14:51:20;;;;;;;10.15;7.30;;;;;;;;;;10152555;28;20038;-71
2022/10/07 14:56:22;;;;;;;10.00;7.32;;;;;;;;;;10155461;28;20045;-70
2022/10/07 15:01:18;;;;;;;11.02;6.63;;;;;;;;;;10150056;28;20050;-70
2022/10/07 15:06:15;;;;;;;12.50;7.65;;;;;;;;;;10157718;28;20045;-71
2022/10/07 15:11:16;;;;;;;10.43;6.63;;;;;;;;;;10170192;28;20051;-70
2022/10/07 15:16:14;;;;;;;11.45;7.68;;;;;;;;;;10163539;28;20057;-70
2022/10/07 15:21:11;;;;;;;7.95;7.13;;;;;;;;;;10151555;28;20052;-70
2022/10/07 15:26:08;;;;;;;12.05;7.47;;;;;;;;;;10159993;28;20508;-70
2022/10/07 15:31:06;;;;;;;11.05;6.95;;;;;;;;;;10159841;28;20182;-71
2022/10/07 15:36:03;;;;;;;9.85;7.65;;;;;;;;;;10168073;28;20096;-71
2022/10/07 15:41:00;;;;;;;9.43;7.13;;;;;;;;;;10163917;28;20508;-70
2022/10/07 15:45:57;;;;;;;11.43;7.25;;;;;;;;;;10156554;28;20049;-70
2022/10/07 15:50:55;;;;;;;7.97;7.22;;;;;;;;;;10164630;28;20057;-70
2022/10/07 15:55:53;;;;;;;9.45;7.25;;;;;;;;;;10160105;28;20057;-71
2022/10/07 16:00:56;;;;;;;11.27;7.72;;;;;;;;;;10141315;28;20053;-70
2022/10/07 16:05:56;;;;;;;10.40;7.15;;;;;;;;;;10153253;28;20046;-71
2022/10/07 16:10:52;;;;;;;9.57;7.20;;;;;;;;;;10152287;28;20390;-70
2022/10/07 16:16:00;;;;;;;11.95;7.30;;;;;;;;;;10146722;28;20053;-70
2022/10/07 16:20:57;;;;;;;21.60;8.40;;;;;;;;;;10152791;28;20042;-71
2022/10/07 16:25:53;;;;;;;12.35;7.45;;;;;;;;;;10156656;28;20093;-70
2022/10/07 16:30:50;;;;;;;11.27;6.45;;;;;;;;;;10155657;28;20072;-71
2022/10/07 16:35:47;;;;;;;11.68;7.55;;;;;;;;;;10145527;28;20074;-71
2022/10/07 16:40:50;;;;;;;13.05;7.32;;;;;;;;;;10149539;28;20053;-71
2022/10/07 16:45:46;;;;;;;15.88;8.27;;;;;;;;;;10152258;28;20771;-70
2022/10/07 16:50:46;;;;;;;13.10;7.63;;;;;;;;;;10148653;28;20046;-71
2022/10/07 16:55:43;;;;;;;23.38;8.38;;;;;;;;;;10153686;28;20057;-71
2022/10/07 17:00:40;;;;;;;11.57;7.25;;;;;;;;;;10151021;28;20044;-71
2022/10/07 17:05:38;;;;;;;13.70;8.88;;;;;;;;;;10144606;28;20042;-71
2022/10/07 17:10:35;;;;;;;12.50;8.45;;;;;;;;;;10146491;28;20042;-71
2022/10/07 17:15:31;;;;;;;12.30;8.35;;;;;;;;;;10142223;28;20496;-71
2022/10/07 17:20:28;;;;;;;13.98;8.13;;;;;;;;;;10150223;28;20042;-71
2022/10/07 17:25:26;;;;;;;9.63;7.97;;;;;;;;;;10147511;28;20436;-70
2022/10/07 17:30:22;;;;;;;15.10;7.72;;;;;;;;;;10152690;28;20058;-70
2022/10/07 17:35:20;;;;;;;10.32;8.02;;;;;;;;;;10153074;28;20073;-71
2022/10/07 17:40:16;;;;;;;15.23;8.73;;;;;;;;;;10144937;28;20492;-71
2022/10/07 17:45:13;;;;;;;13.95;7.90;;;;;;;;;;10153537;28;20401;-71
2022/10/07 17:50:09;;;;;;;11.07;7.65;;;;;;;;;;10147284;28;20401;-71
2022/10/07 17:55:07;;;;;;;9.68;6.80;;;;;;;;;;10142078;28;20468;-71
2022/10/07 18:00:05;;;;;;;8.57;6.85;;;;;;;;;;10149575;28;20488;-72
2022/10/07 18:05:01;;;;;;;12.23;7.90;;;;;;;;;;10142075;28;20046;-70
2022/10/07 18:10:00;;;;;;;15.50;7.68;;;;;;;;;;10156834;28;20126;-70
2022/10/07 18:20:11;;;;;;;9.85;7.20;;;;;;;;;;10152590;28;20053;-70
2022/10/07 18:25:10;;;;;;;10.00;8.00;;;;;;;;;;10159094;28;20077;-70
2022/10/07 18:30:07;;;;;;;13.15;8.18;;;;;;;;;;10157919;28;20826;-71
2022/10/07 18:35:05;;;;;;;15.50;8.88;;;;;;;;;;10159437;28;20586;-71
2022/10/07 18:40:10;;;;;;;21.30;8.82;;;;;;;;;;10160844;28;20042;-71
2022/10/07 18:45:06;;;;;;;8.85;7.65;;;;;;;;;;10146570;28;20043;-70
2022/10/07 18:50:03;;;;;;;10.57;7.45;;;;;;;;;;10141734;28;20125;-70
2022/10/07 18:54:59;;;;;;;12.00;8.02;;;;;;;;;;10147086;28;20068;-70
2022/10/07 18:59:55;;;;;;;11.73;8.25;;;;;;;;;;10143218;28;20518;-70
2022/10/07 19:04:52;;;;;;;13.05;7.88;;;;;;;;;;10140467;28;20034;-71
2022/10/07 19:09:48;;;;;;;9.95;7.85;;;;;;;;;;10146602;28;20057;-71
2022/10/07 19:14:44;;;;;;;8.68;7.75;;;;;;;;;;10132698;28;20043;-71
2022/10/07 19:19:41;;;;;;;13.38;7.50;;;;;;;;;;10139997;28;20050;-71
2022/10/07 19:29:52;;;;;;;17.13;8.85;;;;;;;;;;10147312;28;20046;-71
2022/10/07 19:34:49;;;;;;;14.82;7.68;;;;;;;;;;10140811;28;20052;-71
2022/10/07 19:39:46;;;;;;;12.40;7.35;;;;;;;;;;10148372;28;20600;-71
2022/10/07 19:44:43;;;;;;;10.85;7.28;;;;;;;;;;10152644;28;20571;-71
2022/10/07 19:49:39;;;;;;;15.13;7.60;;;;;;;;;;10153227;28;20042;-71
2022/10/07 19:54:38;;;;;;;12.75;7.10;;;;;;;;;;10148689;28;20038;-71
2022/10/07 19:59:34;;;;;;;11.75;7.20;;;;;;;;;;10152515;28;20554;-71
2022/10/07 20:04:31;;;;;;;11.98;7.70;;;;;;;;;;10151409;28;20046;-71
2022/10/07 20:09:27;;;;;;;11.90;7.63;;;;;;;;;;10148131;28;20285;-71
2022/10/07 20:14:23;;;;;;;10.20;6.80;;;;;;;;;;10149414;28;20137;-71
2022/10/07 20:19:19;;;;;;;13.93;6.88;;;;;;;;;;10155561;28;20050;-71
2022/10/07 20:24:16;;;;;;;12.35;8.02;;;;;;;;;;10150908;28;20431;-71
2022/10/07 20:29:14;;;;;;;9.85;7.03;;;;;;;;;;10154830;28;20537;-71
2022/10/07 20:34:13;;;;;;;14.00;7.93;;;;;;;;;;10149074;28;20065;-71
2022/10/07 20:44:29;;;;;;;13.60;7.90;;;;;;;;;;10151439;28;20042;-70
2022/10/07 20:49:27;;;;;;;11.88;9.07;;;;;;;;;;10146766;28;20049;-70
2022/10/07 20:54:24;;;;;;;19.52;8.88;;;;;;;;;;10155257;28;20068;-71
2022/10/07 20:59:21;;;;;;;14.38;7.72;;;;;;;;;;10145670;28;20428;-70
2022/10/07 21:04:17;;;;;;;10.18;7.13;;;;;;;;;;10142380;28;20042;-71
2022/10/07 21:09:13;;;;;;;15.30;7.50;;;;;;;;;;10148875;28;20060;-71
2022/10/07 21:14:10;;;;;;;11.20;8.20;;;;;;;;;;10153892;28;20053;-71
2022/10/07 21:19:06;;;;;;;12.55;7.22;;;;;;;;;;10149237;28;20412;-71
2022/10/07 21:24:03;;;;;;;12.73;8.40;;;;;;;;;;10149699;28;20042;-70
2022/10/07 21:28:59;;;;;;;13.38;8.15;;;;;;;;;;10133458;28;20085;-70
2022/10/07 21:33:58;;;;;;;10.55;7.45;;;;;;;;;;10149842;28;20052;-69
2022/10/07 21:38:57;;;;;;;11.02;7.13;;;;;;;;;;10160875;28;20073;-73
2022/10/07 21:43:54;;;;;;;13.63;7.57;;;;;;;;;;10135508;28;20527;-70
2022/10/07 21:48:51;;;;;;;15.50;8.43;;;;;;;;;;10146695;28;20042;-69
2022/10/07 21:53:51;;;;;;;13.43;8.50;;;;;;;;;;10163859;28;20045;-69
2022/10/07 21:58:54;;;;;;;14.57;7.57;;;;;;;;;;10155045;28;20051;-69
2022/10/07 22:03:54;;;;;;;16.35;8.73;;;;;;;;;;10138716;28;20050;-69
2022/10/07 22:08:50;;;;;;;14.23;8.10;;;;;;;;;;10135495;28;20049;-69
2022/10/07 22:13:53;;;;;;;13.20;8.75;;;;;;;;;;10157165;28;20053;-70
2022/10/07 22:18:51;;;;;;;12.20;8.13;;;;;;;;;;10154902;28;20530;-70
2022/10/07 22:23:51;;;;;;;13.13;7.95;;;;;;;;;;10148927;28;20038;-70
2022/10/07 22:28:48;;;;;;;15.70;8.90;;;;;;;;;;10147116;28;20034;-70
2022/10/07 22:33:49;;;;;;;13.70;7.93;;;;;;;;;;10147821;28;20039;-70
2022/10/07 22:38:45;;;;;;;13.93;7.72;;;;;;;;;;10147606;28;20668;-70
2022/10/07 22:43:45;;;;;;;13.95;8.40;;;;;;;;;;10149116;28;20420;-70
2022/10/07 22:48:47;;;;;;;12.63;7.70;;;;;;;;;;10146787;28;20050;-70
2022/10/07 22:53:47;;;;;;;12.52;8.02;;;;;;;;;;10136899;28;20096;-71
2022/10/07 22:58:48;;;;;;;13.05;7.88;;;;;;;;;;10148722;28;20578;-70
2022/10/07 23:03:45;;;;;;;11.52;8.00;;;;;;;;;;10146299;28;20050;-71
2022/10/07 23:08:41;;;;;;;13.73;8.32;;;;;;;;;;10140807;28;20480;-71
2022/10/07 23:13:38;;;;;;;11.30;7.97;;;;;;;;;;10144053;28;20061;-71
2022/10/07 23:18:34;;;;;;;14.13;7.78;;;;;;;;;;10141583;28;20042;-71
2022/10/07 23:23:35;;;;;;;13.32;7.90;;;;;;;;;;10142923;28;20431;-71
2022/10/07 23:28:32;;;;;;;16.08;7.70;;;;;;;;;;10147444;28;20045;-70
2022/10/07 23:33:29;;;;;;;25.58;8.48;;;;;;;;;;10142665;28;20526;-70
2022/10/07 23:38:26;;;;;;;24.67;7.95;;;;;;;;;;10142948;28;20125;-70
2022/10/07 23:43:22;;;;;;;11.73;7.10;;;;;;;;;;10151524;28;20519;-70
2022/10/07 23:48:18;;;;;;;14.02;6.90;;;;;;;;;;10140769;28;20054;-70
2022/10/07 23:53:18;;;;;;;13.27;6.95;;;;;;;;;;10142035;28;20038;-70
2022/10/07 23:58:16;;;;;;;16.13;7.97;;;;;;;;;;10143768;28;20060;-70
